Riverside, Oregon
Current Conditions -  °F | °C
As of 11:53 PM on Monday 26 Jan 2015 (Local Time) from KBNO Reporting Station
Moderate Fog Moderate Fog  
Wind Chill: 30°   Ceiling: 100
Heat Index: 30°   Visibility: 0.25mi
Dew Point: 28°   Wind: 3mph
Humidity: 92%   Direction: 190°S
Pressure: 30.09"   Gusts: NA
Location:  43.54°N, 118.16°W
Report Text: KBNO 270753Z AUTO 19003KT 1/4SM FZFG VV001 M01/M02 A3009 RMK AO2 SLP207 I1000 T10111022 400671033
Loading
Personal Weather Stations






























Interactive Weather Map New forecast layout! Learn more

10-Day Weather Forecast

Advertisements
Track Severe Weather on mobile